Terminal Aerodrome Forecast
Issued by NWS Austin/San Antonio, TX

Home | Current Version | Previous Version | Text Only | Print | Product List | Glossary On
Versions: 1 2 3 4 5 6 7 8 9 10 11 12 13
117
FTUS44 KEWX 232340
TAFDRT
TAF
KDRT 232340Z 2400/2424 13014KT P6SM SKC
     FM240200 11007KT P6SM SKC
     FM241500 13013KT P6SM FEW050=

USA.gov is the U.S. government's official web portal to all federal, state and local government web resources and services.